createdAt,value
2017-01-16T00:01:05.429Z,76.32
2017-01-16T00:02:14.105Z,76.51
2017-01-16T00:03:22.786Z,76.79
2017-01-16T00:04:31.466Z,76.41
2017-01-16T00:05:40.141Z,76.41
2017-01-16T00:06:48.824Z,76.41
2017-01-16T00:07:57.534Z,76.04
2017-01-16T00:09:06.222Z,76.04
2017-01-16T00:10:14.896Z,75.94
2017-01-16T00:11:23.571Z,76.41
2017-01-16T00:12:32.253Z,75.75
2017-01-16T00:13:40.933Z,76.35
2017-01-16T00:14:49.607Z,75.98
2017-01-16T00:15:58.293Z,76.04
2017-01-16T00:17:06.970Z,75.94
2017-01-16T00:18:15.644Z,76.7
2017-01-16T00:19:24.324Z,76.26
2017-01-16T00:20:33.004Z,76.54
2017-01-16T00:21:41.684Z,76.7
2017-01-16T00:22:50.364Z,77.26
2017-01-16T00:23:59.442Z,77.07
2017-01-16T00:25:08.120Z,77.17
2017-01-16T00:26:16.800Z,78.11
2017-01-16T00:27:25.479Z,77.83
2017-01-16T00:28:34.156Z,77.73
2017-01-16T00:29:42.896Z,78.58
2017-01-16T00:30:51.578Z,78.86
2017-01-16T00:32:00.258Z,79.14
2017-01-16T00:33:08.935Z,79.33
2017-01-16T00:34:17.615Z,79.43
2017-01-16T00:35:26.295Z,79.24
2017-01-16T00:36:34.991Z,78.77
2017-01-16T00:37:43.673Z,79.05
2017-01-16T00:38:52.354Z,79.05
2017-01-16T00:40:01.031Z,79.05
2017-01-16T00:41:09.709Z,78.49
2017-01-16T00:42:18.419Z,77.92
2017-01-16T00:43:27.107Z,77.83
2017-01-16T00:44:35.785Z,78.02
2017-01-16T00:45:44.464Z,78.11
2017-01-16T00:46:53.139Z,77.73
2017-01-16T00:48:01.817Z,77.92
2017-01-16T00:49:10.500Z,77.26
2017-01-16T00:50:19.178Z,77.17
2017-01-16T00:51:27.861Z,77.17
2017-01-16T00:52:36.544Z,76.79
2017-01-16T00:53:45.221Z,76.89
2017-01-16T00:54:53.900Z,76.7
2017-01-16T00:56:02.579Z,76.73
2017-01-16T00:57:11.258Z,76.73
2017-01-16T00:58:19.933Z,76.17
2017-01-16T00:59:28.614Z,76.17
2017-01-16T01:00:37.290Z,76.26
2017-01-16T01:01:45.971Z,76.07
2017-01-16T01:02:54.650Z,75.51
2017-01-16T01:04:03.335Z,75.6
2017-01-16T01:05:12.020Z,75.79
2017-01-16T01:06:20.700Z,75.89
2017-01-16T01:07:29.384Z,75.51
2017-01-16T01:08:38.066Z,75.6
2017-01-16T01:09:46.744Z,75.51
2017-01-16T01:10:55.426Z,75.6
2017-01-16T01:12:04.107Z,76.26
2017-01-16T01:13:12.817Z,75.79
2017-01-16T01:14:21.510Z,75.89
2017-01-16T01:15:30.184Z,75.89
2017-01-16T01:16:38.861Z,76.45
2017-01-16T01:17:47.537Z,76.73
2017-01-16T01:18:56.214Z,76.26
2017-01-16T01:20:04.888Z,75.89
2017-01-16T01:21:13.569Z,76.07
2017-01-16T01:22:22.244Z,75.89
2017-01-16T01:23:30.922Z,76.35
2017-01-16T01:24:39.605Z,76.45
2017-01-16T01:25:48.286Z,76.17
2017-01-16T01:26:56.964Z,76.26
2017-01-16T01:28:05.646Z,76.17
2017-01-16T01:29:14.330Z,76.07
2017-01-16T01:30:23.024Z,76.35
2017-01-16T01:31:31.710Z,76.35
2017-01-16T01:32:40.394Z,76.26
2017-01-16T01:33:49.072Z,75.98
2017-01-16T01:34:57.751Z,75.42
2017-01-16T01:36:06.431Z,75.51
2017-01-16T01:37:15.116Z,76.17
2017-01-16T01:38:23.793Z,75.98
2017-01-16T01:39:32.475Z,75.51
2017-01-16T01:40:41.219Z,75.6
2017-01-16T01:41:49.898Z,75.32
2017-01-16T01:42:58.577Z,75.51
2017-01-16T01:44:07.257Z,75.51
2017-01-16T01:45:15.938Z,75.23
2017-01-16T01:46:24.615Z,75.6
2017-01-16T01:47:33.299Z,74.95
2017-01-16T01:48:41.980Z,75.6
2017-01-16T01:49:50.663Z,75.51
2017-01-16T01:50:59.341Z,75.6
2017-01-16T01:52:08.018Z,75.51
2017-01-16T01:53:16.699Z,75.51
2017-01-16T01:54:25.376Z,75.6
2017-01-16T01:55:34.051Z,75.32
2017-01-16T01:56:42.730Z,75.51
2017-01-16T01:57:51.409Z,75.7
2017-01-16T01:59:00.091Z,75.51
2017-01-16T02:00:08.771Z,75.7
2017-01-16T02:01:17.453Z,76.07
2017-01-16T02:02:26.132Z,75.98
2017-01-16T02:03:34.806Z,76.26
2017-01-16T02:04:43.481Z,75.89
2017-01-16T02:05:52.157Z,75.79
2017-01-16T02:07:00.834Z,76.07
2017-01-16T02:08:09.512Z,76.45
2017-01-16T02:09:18.190Z,75.98
2017-01-16T02:10:26.864Z,75.89
2017-01-16T02:11:35.543Z,75.79
2017-01-16T02:12:44.647Z,76.07
2017-01-16T02:13:53.324Z,75.89
2017-01-16T02:15:02.003Z,76.26
2017-01-16T02:16:10.681Z,76.35
2017-01-16T02:17:19.360Z,76.45
2017-01-16T02:18:28.039Z,76.64
2017-01-16T02:19:36.721Z,76.45
2017-01-16T02:20:45.397Z,76.26
2017-01-16T02:21:54.083Z,76.13
2017-01-16T02:23:02.763Z,76.13
2017-01-16T02:24:11.442Z,76.13
2017-01-16T02:25:20.122Z,76.6
2017-01-16T02:26:28.809Z,76.41
2017-01-16T02:27:37.490Z,76.13
2017-01-16T02:28:46.167Z,76.22
2017-01-16T02:29:54.851Z,75.94
2017-01-16T02:31:03.529Z,75.94
2017-01-16T02:32:12.208Z,76.6
2017-01-16T02:33:20.890Z,76.51
2017-01-16T02:34:29.571Z,76.51
2017-01-16T02:35:38.258Z,76.6
2017-01-16T02:36:46.946Z,76.79
2017-01-16T02:37:55.623Z,76.79
2017-01-16T02:39:04.305Z,76.7
2017-01-16T02:40:12.987Z,76.79
2017-01-16T02:41:21.666Z,77.73
2017-01-16T02:42:30.345Z,77.07
2017-01-16T02:43:39.027Z,77.17
2017-01-16T02:44:47.731Z,77.64
2017-01-16T02:45:56.412Z,77.26
2017-01-16T02:47:05.090Z,76.89
2017-01-16T02:48:13.769Z,76.79
2017-01-16T02:49:22.450Z,76.89
2017-01-16T02:50:31.134Z,77.2
2017-01-16T02:51:39.816Z,76.7
2017-01-16T02:52:48.887Z,77.07
2017-01-16T02:53:57.665Z,76.89
2017-01-16T02:55:06.747Z,76.98
2017-01-16T02:56:15.426Z,77.07
2017-01-16T02:57:24.103Z,76.98
2017-01-16T02:58:32.787Z,76.98
2017-01-16T02:59:41.459Z,76.79
2017-01-16T03:00:50.135Z,77.01
2017-01-16T03:01:58.813Z,76.79
2017-01-16T03:03:07.546Z,76.79
2017-01-16T03:04:16.223Z,76.64
2017-01-16T03:05:24.911Z,76.54
2017-01-16T03:06:33.591Z,76.73
2017-01-16T03:07:42.267Z,76.45
2017-01-16T03:08:50.952Z,76.92
2017-01-16T03:09:59.632Z,76.82
2017-01-16T03:11:08.325Z,76.64
2017-01-16T03:12:17.005Z,75.98
2017-01-16T03:13:25.683Z,76.45
2017-01-16T03:14:34.363Z,76.35
2017-01-16T03:15:43.044Z,75.89
2017-01-16T03:16:51.727Z,76.35
2017-01-16T03:18:00.409Z,76.35
2017-01-16T03:19:09.082Z,76.45
2017-01-16T03:20:17.757Z,76.17
2017-01-16T03:21:26.433Z,76.13
2017-01-16T03:22:35.111Z,76.54
2017-01-16T03:23:43.787Z,76.35
2017-01-16T03:24:52.469Z,76.79
2017-01-16T03:26:01.148Z,76.89
2017-01-16T03:27:09.835Z,76.54
2017-01-16T03:28:18.513Z,76.7
2017-01-16T03:29:27.190Z,76.51
2017-01-16T03:30:35.867Z,76.32
2017-01-16T03:31:44.545Z,76.89
2017-01-16T03:32:53.224Z,76.98
2017-01-16T03:34:01.905Z,76.89
2017-01-16T03:35:10.585Z,77.17
2017-01-16T03:36:19.264Z,77.07
2017-01-16T03:37:27.939Z,77.64
2017-01-16T03:38:36.615Z,77.45
2017-01-16T03:39:45.294Z,77.73
2017-01-16T03:40:53.974Z,77.64
2017-01-16T03:42:03.052Z,77.73
2017-01-16T03:43:11.744Z,77.73
2017-01-16T03:44:20.418Z,77.45
2017-01-16T03:45:29.098Z,77.92
2017-01-16T03:46:37.783Z,77.67
2017-01-16T03:47:46.463Z,77.73
2017-01-16T03:48:55.141Z,77.92
2017-01-16T03:50:03.819Z,78.2
2017-01-16T03:51:12.902Z,77.92
2017-01-16T03:52:21.586Z,77.73
2017-01-16T03:53:30.262Z,77.17
2017-01-16T03:54:38.943Z,76.98
2017-01-16T03:55:47.634Z,77.26
2017-01-16T03:56:56.310Z,77.92
2017-01-16T03:58:05.391Z,77.73
2017-01-16T03:59:14.073Z,77.92
2017-01-16T04:00:22.753Z,77.36
2017-01-16T04:01:31.441Z,77.73
2017-01-16T04:02:40.113Z,78.11
2017-01-16T04:03:48.797Z,77.73
2017-01-16T04:04:57.501Z,78.11
2017-01-16T04:06:06.186Z,78.02
2017-01-16T04:07:14.868Z,77.55
2017-01-16T04:08:23.549Z,77.55
2017-01-16T04:09:32.225Z,78.02
2017-01-16T04:10:40.902Z,78.2
2017-01-16T04:11:49.584Z,77.73
2017-01-16T04:12:58.265Z,78.02
2017-01-16T04:14:06.945Z,78.3
2017-01-16T04:15:15.626Z,78.11
2017-01-16T04:16:24.300Z,78.2
2017-01-16T04:17:32.980Z,77.92
2017-01-16T04:18:41.665Z,77.64
2017-01-16T04:19:50.343Z,77.73
2017-01-16T04:20:59.026Z,77.45
2017-01-16T04:22:07.705Z,77.36
2017-01-16T04:23:16.732Z,76.89
2017-01-16T04:24:25.411Z,76.79
2017-01-16T04:25:34.085Z,76.6
2017-01-16T04:26:42.760Z,76.17
2017-01-16T04:27:51.837Z,75.89
2017-01-16T04:29:00.528Z,76.22
2017-01-16T04:30:09.211Z,76.6
2017-01-16T04:31:17.887Z,76.26
2017-01-16T04:32:26.568Z,76.6
2017-01-16T04:33:35.244Z,76.79
2017-01-16T04:34:44.020Z,76.6
2017-01-16T04:35:52.705Z,76.13
2017-01-16T04:37:01.383Z,76.6
2017-01-16T04:38:10.064Z,76.6
2017-01-16T04:39:18.747Z,76.32
2017-01-16T04:40:27.422Z,76.6
2017-01-16T04:41:36.103Z,76.6
2017-01-16T04:42:44.777Z,76.89
2017-01-16T04:43:53.459Z,77.55
2017-01-16T04:45:02.136Z,77.73
2017-01-16T04:46:10.819Z,77.64
2017-01-16T04:47:19.499Z,76.7
2017-01-16T04:48:28.177Z,76.98
2017-01-16T04:49:36.855Z,77.17
2017-01-16T04:50:45.533Z,77.36
2017-01-16T04:51:54.209Z,76.98
2017-01-16T04:53:02.883Z,77.07
2017-01-16T04:54:11.592Z,77.36
2017-01-16T04:55:20.273Z,77.83
2017-01-16T04:56:28.953Z,78.2
2017-01-16T04:57:37.632Z,78.02
2017-01-16T04:58:46.311Z,78.02
2017-01-16T04:59:54.986Z,78.2
2017-01-16T05:01:03.666Z,77.83
2017-01-16T05:02:12.343Z,78.49
2017-01-16T05:03:21.025Z,78.49
2017-01-16T05:04:29.700Z,79.05
2017-01-16T05:05:38.374Z,79.24
2017-01-16T05:06:47.056Z,79.52
2017-01-16T05:07:55.734Z,79.61
2017-01-16T05:09:04.413Z,79.14
2017-01-16T05:10:13.095Z,79.61
2017-01-16T05:11:21.777Z,79.61
2017-01-16T05:12:30.861Z,79.14
2017-01-16T05:13:39.541Z,79.8
2017-01-16T05:14:48.222Z,79.9
2017-01-16T05:15:56.901Z,79.61
2017-01-16T05:17:05.579Z,79.71
2017-01-16T05:18:14.260Z,79.71
2017-01-16T05:19:22.939Z,80.08
2017-01-16T05:20:31.617Z,79.71
2017-01-16T05:21:40.308Z,79.61
2017-01-16T05:22:48.991Z,79.61
2017-01-16T05:23:57.696Z,79.8
2017-01-16T05:25:06.377Z,79.8
2017-01-16T05:26:15.081Z,79.52
2017-01-16T05:27:23.753Z,79.24
2017-01-16T05:28:32.430Z,79.52
2017-01-16T05:29:41.105Z,80.08
2017-01-16T05:30:49.784Z,79.71
2017-01-16T05:31:58.460Z,79.05
2017-01-16T05:33:07.140Z,79.43
2017-01-16T05:34:15.827Z,79.61
2017-01-16T05:35:24.507Z,79.24
2017-01-16T05:36:33.185Z,79.14
2017-01-16T05:37:41.866Z,78.96
2017-01-16T05:38:50.570Z,78.39
2017-01-16T05:39:59.254Z,78.3
2017-01-16T05:41:07.961Z,77.73
2017-01-16T05:42:16.639Z,77.73
2017-01-16T05:43:25.321Z,77.64
2017-01-16T05:44:33.997Z,77.83
2017-01-16T05:45:42.676Z,78.39
2017-01-16T05:46:51.358Z,78.67
2017-01-16T05:48:00.034Z,79.33
2017-01-16T05:49:08.719Z,79.43
2017-01-16T05:50:17.401Z,79.71
2017-01-16T05:51:26.109Z,79.33
2017-01-16T05:52:34.788Z,79.71
2017-01-16T05:53:43.470Z,79.99
2017-01-16T05:54:52.144Z,79.33
2017-01-16T05:56:00.826Z,79.99
2017-01-16T05:57:09.501Z,80.08
2017-01-16T05:58:18.179Z,80.27
2017-01-16T05:59:26.859Z,80.08
2017-01-16T06:00:35.537Z,79.71
2017-01-16T06:01:44.217Z,79.52
2017-01-16T06:02:53.288Z,79.66
2017-01-16T06:04:01.966Z,79.37
2017-01-16T06:05:10.649Z,78.52
2017-01-16T06:06:19.330Z,78.71
2017-01-16T06:07:28.010Z,78.43
2017-01-16T06:08:36.685Z,78.34
2017-01-16T06:09:45.363Z,78.62
2017-01-16T06:10:54.047Z,78.34
2017-01-16T06:12:02.731Z,78.15
2017-01-16T06:13:11.418Z,78.43
2017-01-16T06:14:20.101Z,78.9
2017-01-16T06:15:28.785Z,79.66
2017-01-16T06:16:37.463Z,79.66
2017-01-16T06:17:46.154Z,79.56
2017-01-16T06:18:54.852Z,78.9
2017-01-16T06:20:03.529Z,79.37
2017-01-16T06:21:12.211Z,79.66
2017-01-16T06:22:20.893Z,80.13
2017-01-16T06:23:29.571Z,79.37
2017-01-16T06:24:38.254Z,79.85
2017-01-16T06:25:46.934Z,79.47
2017-01-16T06:26:55.612Z,79.47
2017-01-16T06:28:04.290Z,78.43
2017-01-16T06:29:12.975Z,77.96
2017-01-16T06:30:21.655Z,77.86
2017-01-16T06:31:30.336Z,77.67
2017-01-16T06:32:39.032Z,77.96
2017-01-16T06:33:47.719Z,78.05
2017-01-16T06:34:56.402Z,77.96
2017-01-16T06:36:05.077Z,77.77
2017-01-16T06:37:13.755Z,78.15
2017-01-16T06:38:22.434Z,78.62
2017-01-16T06:39:31.143Z,78.52
2017-01-16T06:40:39.829Z,78.52
2017-01-16T06:41:48.501Z,78.9
2017-01-16T06:42:57.187Z,79.28
2017-01-16T06:44:05.872Z,78.81
2017-01-16T06:45:14.546Z,78.43
2017-01-16T06:46:23.231Z,78.15
2017-01-16T06:47:31.918Z,78.43
2017-01-16T06:48:40.599Z,78.43
2017-01-16T06:49:49.279Z,78.43
2017-01-16T06:50:57.956Z,78.71
2017-01-16T06:52:06.636Z,78.81
2017-01-16T06:53:15.344Z,79.28
2017-01-16T06:54:24.040Z,79.28
2017-01-16T06:55:32.724Z,79.09
2017-01-16T06:56:41.418Z,79.75
2017-01-16T06:57:50.096Z,79.37
2017-01-16T06:58:58.775Z,79.6
2017-01-16T07:00:07.460Z,79.13
2017-01-16T07:01:16.140Z,79.5
2017-01-16T07:02:24.819Z,79.69
2017-01-16T07:03:33.501Z,79.32
2017-01-16T07:04:42.183Z,79.79
2017-01-16T07:05:50.865Z,79.5
2017-01-16T07:06:59.553Z,78.94
2017-01-16T07:08:08.234Z,78.38
2017-01-16T07:09:16.914Z,77.72
2017-01-16T07:10:25.594Z,77.72
2017-01-16T07:11:34.272Z,77.72
2017-01-16T07:12:42.951Z,77.72
2017-01-16T07:13:51.631Z,77.81
2017-01-16T07:15:00.307Z,78.09
2017-01-16T07:16:08.988Z,78.09
2017-01-16T07:17:18.070Z,79.41
2017-01-16T07:18:26.750Z,80.07
2017-01-16T07:19:35.434Z,79.79
2017-01-16T07:20:44.117Z,80.17
2017-01-16T07:21:52.800Z,80.17
2017-01-16T07:23:01.480Z,80.36
2017-01-16T07:24:10.159Z,80.17
2017-01-16T07:25:18.843Z,79.88
2017-01-16T07:26:27.524Z,79.79
2017-01-16T07:27:36.206Z,80.07
2017-01-16T07:28:44.888Z,79.6
2017-01-16T07:29:53.582Z,79.79
2017-01-16T07:31:02.268Z,79.69
2017-01-16T07:32:10.950Z,79.69
2017-01-16T07:33:19.636Z,80.17
2017-01-16T07:34:28.314Z,79.98
2017-01-16T07:35:36.996Z,80.17
2017-01-16T07:36:45.673Z,79.98
2017-01-16T07:37:54.354Z,79.98
2017-01-16T07:39:03.029Z,79.98
2017-01-16T07:40:11.720Z,81.02
2017-01-16T07:41:20.800Z,81.11
2017-01-16T07:42:29.490Z,81.49
2017-01-16T07:43:38.172Z,81.58
2017-01-16T07:44:46.856Z,81.68
2017-01-16T07:45:55.534Z,82.24
2017-01-16T07:47:04.221Z,82.9
2017-01-16T07:48:12.905Z,81.96
2017-01-16T07:49:21.608Z,81.02
2017-01-16T07:50:30.302Z,80.92
2017-01-16T07:51:38.985Z,80.83
2017-01-16T07:52:47.672Z,80.07
2017-01-16T07:53:56.361Z,79.98
2017-01-16T07:55:05.061Z,80.07
2017-01-16T07:56:13.748Z,79.22
2017-01-16T07:57:22.446Z,79.79
2017-01-16T07:58:31.129Z,79.69
2017-01-16T07:59:39.812Z,79.41
2017-01-16T08:00:48.497Z,79.6
2017-01-16T08:01:57.200Z,79.79
2017-01-16T08:03:05.877Z,79.79
2017-01-16T08:04:14.565Z,80.17
2017-01-16T08:05:23.252Z,80.45
2017-01-16T08:06:32.388Z,79.98
2017-01-16T08:07:41.072Z,79.69
2017-01-16T08:08:49.757Z,80.02
2017-01-16T08:09:58.441Z,79.64
2017-01-16T08:11:07.135Z,79.83
2017-01-16T08:12:15.857Z,79.55
2017-01-16T08:13:24.539Z,79.83
2017-01-16T08:14:33.228Z,79.93
2017-01-16T08:15:41.909Z,80.02
2017-01-16T08:16:50.609Z,80.4
2017-01-16T08:17:59.294Z,80.3
2017-01-16T08:19:07.981Z,80.49
2017-01-16T08:20:16.664Z,80.58
2017-01-16T08:21:25.346Z,80.96
2017-01-16T08:22:34.030Z,80.87
2017-01-16T08:23:42.710Z,80.21
2017-01-16T08:24:51.392Z,79.74
2017-01-16T08:26:00.082Z,78.98
2017-01-16T08:27:08.772Z,80.4
2017-01-16T08:28:17.455Z,80.77
2017-01-16T08:29:26.141Z,80.58
2017-01-16T08:30:34.825Z,80.87
2017-01-16T08:31:43.508Z,81.15
2017-01-16T08:32:52.189Z,81.15
2017-01-16T08:34:00.869Z,81.43
2017-01-16T08:35:09.958Z,80.96
2017-01-16T08:36:19.042Z,81.15
2017-01-16T08:37:27.730Z,81.34
2017-01-16T08:38:36.415Z,80.87
2017-01-16T08:39:45.096Z,80.87
2017-01-16T08:40:53.782Z,80.58
2017-01-16T08:42:02.474Z,80.3
2017-01-16T08:43:11.158Z,79.93
2017-01-16T08:44:19.847Z,80.02
2017-01-16T08:45:28.559Z,80.21
2017-01-16T08:46:37.244Z,80.21
2017-01-16T08:47:45.920Z,80.58
2017-01-16T08:48:54.606Z,81.34
2017-01-16T08:50:03.291Z,80.87
2017-01-16T08:51:11.988Z,81.24
2017-01-16T08:52:20.672Z,81.24
2017-01-16T08:53:29.362Z,81.15
2017-01-16T08:54:38.045Z,81.24
2017-01-16T08:55:46.731Z,81.24
2017-01-16T08:56:55.419Z,81.24
2017-01-16T08:58:04.104Z,81.05
2017-01-16T08:59:12.793Z,80.87
2017-01-16T09:00:21.479Z,81.15
2017-01-16T09:01:30.195Z,80.68
2017-01-16T09:02:39.273Z,80.77
2017-01-16T09:03:47.957Z,81.24
2017-01-16T09:04:56.640Z,80.96
2017-01-16T09:06:05.336Z,80.73
2017-01-16T09:07:14.024Z,80.68
2017-01-16T09:08:22.709Z,80.87
2017-01-16T09:09:31.396Z,80.58
2017-01-16T09:10:40.073Z,80.54
2017-01-16T09:11:48.757Z,80.17
2017-01-16T09:12:57.458Z,79.79
2017-01-16T09:14:06.148Z,80.17
2017-01-16T09:15:14.832Z,79.88
2017-01-16T09:16:23.519Z,80.26
2017-01-16T09:17:32.215Z,80.54
2017-01-16T09:18:40.899Z,80.83
2017-01-16T09:19:49.588Z,80.64
2017-01-16T09:20:58.268Z,80.83
2017-01-16T09:22:06.953Z,81.02
2017-01-16T09:23:15.639Z,80.64
2017-01-16T09:24:24.327Z,81.02
2017-01-16T09:25:33.008Z,80.73
2017-01-16T09:26:41.690Z,81.02
2017-01-16T09:27:50.374Z,81.21
2017-01-16T09:28:59.056Z,81.02
2017-01-16T09:30:07.738Z,81.11
2017-01-16T09:31:16.424Z,81.68
2017-01-16T09:32:25.109Z,81.87
2017-01-16T09:33:33.789Z,81.3
2017-01-16T09:34:42.472Z,80.83
2017-01-16T09:35:51.154Z,81.49
2017-01-16T09:36:59.838Z,81.02
2017-01-16T09:38:08.525Z,81.58
2017-01-16T09:39:17.238Z,81.3
2017-01-16T09:40:25.916Z,81.21
2017-01-16T09:41:34.600Z,81.21
2017-01-16T09:42:43.282Z,81.02
2017-01-16T09:43:51.962Z,80.73
2017-01-16T09:45:00.645Z,80.73
2017-01-16T09:46:09.329Z,81.3
2017-01-16T09:47:18.009Z,80.83
2017-01-16T09:48:26.693Z,80.92
2017-01-16T09:49:35.378Z,80.36
2017-01-16T09:50:44.071Z,80.64
2017-01-16T09:51:52.754Z,80.92
2017-01-16T09:53:01.436Z,81.3
2017-01-16T09:54:10.166Z,81.21
2017-01-16T09:55:18.855Z,81.02
2017-01-16T09:56:27.564Z,81.68
2017-01-16T09:57:36.251Z,82.34
2017-01-16T09:58:44.940Z,81.49
2017-01-16T09:59:53.624Z,81.02
2017-01-16T10:01:02.311Z,81.02
2017-01-16T10:02:10.994Z,81.21
2017-01-16T10:03:19.678Z,81.4
2017-01-16T10:04:28.366Z,81.11
2017-01-16T10:05:37.052Z,80.92
2017-01-16T10:06:45.735Z,80.92
2017-01-16T10:07:54.421Z,81.49
2017-01-16T10:09:03.104Z,80.92
2017-01-16T10:10:11.805Z,81.02
2017-01-16T10:11:20.492Z,81.11
2017-01-16T10:12:29.174Z,80.92
2017-01-16T10:13:37.858Z,80.73
2017-01-16T10:14:46.551Z,80.92
2017-01-16T10:15:55.235Z,80.92
2017-01-16T10:17:03.920Z,80.73
2017-01-16T10:18:12.613Z,81.11
2017-01-16T10:19:21.300Z,80.83
2017-01-16T10:20:29.986Z,80.73
2017-01-16T10:21:38.667Z,80.92
2017-01-16T10:22:47.351Z,81.11
2017-01-16T10:23:56.291Z,81.4
2017-01-16T10:25:04.977Z,81.21
2017-01-16T10:26:13.662Z,81.21
2017-01-16T10:27:22.375Z,81.02
2017-01-16T10:28:31.070Z,81.3
2017-01-16T10:29:39.751Z,81.21
2017-01-16T10:30:48.432Z,81.11
2017-01-16T10:31:57.118Z,81.4
2017-01-16T10:33:05.799Z,81.96
2017-01-16T10:34:14.478Z,81.96
2017-01-16T10:35:23.154Z,82.43
2017-01-16T10:36:31.835Z,82.34
2017-01-16T10:37:40.523Z,82.81
2017-01-16T10:38:49.237Z,83
2017-01-16T10:39:57.919Z,82.81
2017-01-16T10:41:06.615Z,83.56
2017-01-16T10:42:15.299Z,83.37
2017-01-16T10:43:23.985Z,83.56
2017-01-16T10:44:32.668Z,83.56
2017-01-16T10:45:41.349Z,83.37
2017-01-16T10:46:50.027Z,82.81
2017-01-16T10:47:58.709Z,82.81
2017-01-16T10:49:07.389Z,82.71
2017-01-16T10:50:16.099Z,82.53
2017-01-16T10:51:24.785Z,81.11
2017-01-16T10:52:33.467Z,79.88
2017-01-16T10:53:42.147Z,79.69
2017-01-16T10:54:50.827Z,79.41
2017-01-16T10:55:59.511Z,78.85
2017-01-16T10:57:08.198Z,78.51
2017-01-16T10:58:16.881Z,78.51
2017-01-16T10:59:25.567Z,78.13
2017-01-16T11:00:34.253Z,76.62
2017-01-16T11:01:42.937Z,76.53
2017-01-16T11:02:51.616Z,76.43
2017-01-16T11:04:00.298Z,76.47
2017-01-16T11:05:08.979Z,75.62
2017-01-16T11:06:17.664Z,75.24
2017-01-16T11:07:26.377Z,74.4
2017-01-16T11:08:35.089Z,74.68
2017-01-16T11:09:43.774Z,74.49
2017-01-16T11:10:52.460Z,73.83
2017-01-16T11:12:01.144Z,73.74
2017-01-16T11:13:09.862Z,72.03
2017-01-16T11:14:18.553Z,72.03
2017-01-16T11:15:27.243Z,72.13
2017-01-16T11:16:36.328Z,71.41
2017-01-16T11:17:45.016Z,70.84
2017-01-16T11:18:54.097Z,70.56
2017-01-16T11:20:02.783Z,70.09
2017-01-16T11:21:11.469Z,70.28
2017-01-16T11:22:20.153Z,71.03
2017-01-16T11:23:28.839Z,70.47
2017-01-16T11:24:37.533Z,69.43
2017-01-16T11:25:46.222Z,68.57
2017-01-16T11:26:54.931Z,68.29
2017-01-16T11:28:03.628Z,69.14
2017-01-16T11:29:12.320Z,68.76
2017-01-16T11:30:21.016Z,68.95
2017-01-16T11:31:29.707Z,69.05
2017-01-16T11:32:38.442Z,69.52
2017-01-16T11:33:47.133Z,69.43
2017-01-16T11:34:55.829Z,69.33
2017-01-16T11:36:04.534Z,69.43
2017-01-16T11:37:13.223Z,69.65
2017-01-16T11:38:21.962Z,69.37
2017-01-16T11:39:30.656Z,69.18
2017-01-16T11:40:39.340Z,69.37
2017-01-16T11:41:48.029Z,69.4
2017-01-16T11:42:56.719Z,68.84
2017-01-16T11:44:05.407Z,68.65
2017-01-16T11:45:14.095Z,68.49
2017-01-16T11:46:22.787Z,67.83
2017-01-16T11:47:31.469Z,67.93
2017-01-16T11:48:40.166Z,67.64
2017-01-16T11:49:48.951Z,67.2
2017-01-16T11:50:57.636Z,66.06
2017-01-16T11:52:06.331Z,65.97
2017-01-16T11:53:15.028Z,65.59
2017-01-16T11:54:23.747Z,65.15
2017-01-16T11:55:32.453Z,65.25
2017-01-16T11:56:41.141Z,63.64
2017-01-16T11:57:49.835Z,63.35
2017-01-16T11:58:58.523Z,61.93
2017-01-16T12:00:07.217Z,61.74
2017-01-16T12:01:15.913Z,62.59
2017-01-16T12:02:24.607Z,62.78
2017-01-16T12:03:33.297Z,62.62
2017-01-16T12:04:41.995Z,62.53
2017-01-16T12:05:50.701Z,62.15
2017-01-16T12:06:59.404Z,61.71
2017-01-16T12:08:08.100Z,61.52
2017-01-16T12:09:16.790Z,60.38
2017-01-16T12:10:25.884Z,58.2
2017-01-16T12:11:34.577Z,59.05
2017-01-16T12:12:43.270Z,59.34
2017-01-16T12:13:51.962Z,58.11
2017-01-16T12:15:00.657Z,57.82
2017-01-16T12:16:09.351Z,58.01
2017-01-16T12:17:18.044Z,57.06
2017-01-16T12:18:26.736Z,55.64
2017-01-16T12:19:35.431Z,56.78
2017-01-16T12:20:44.124Z,57.64
2017-01-16T12:21:52.817Z,58.2
2017-01-16T12:23:01.509Z,57.92
2017-01-16T12:24:10.207Z,57.47
2017-01-16T12:25:18.937Z,57.95
2017-01-16T12:26:27.634Z,57.28
2017-01-16T12:27:36.325Z,55.67
2017-01-16T12:28:45.018Z,55.48
2017-01-16T12:29:53.712Z,54.91
2017-01-16T12:31:02.407Z,54.82
2017-01-16T12:32:11.105Z,53.68
2017-01-16T12:33:19.800Z,54.06
2017-01-16T12:34:28.493Z,54.25
2017-01-16T12:35:37.188Z,54.06
2017-01-16T12:36:45.895Z,52.64
2017-01-16T12:37:54.588Z,51.95
2017-01-16T12:39:03.286Z,52.98
2017-01-16T12:40:11.989Z,53.84
2017-01-16T12:41:20.688Z,53.75
2017-01-16T12:42:29.386Z,54.6
2017-01-16T12:43:38.086Z,54.22
2017-01-16T12:44:46.782Z,54.41
2017-01-16T12:45:55.475Z,54
2017-01-16T12:47:04.172Z,54.47
2017-01-16T12:48:12.875Z,54.76
2017-01-16T12:49:21.572Z,55.24
2017-01-16T12:50:30.269Z,54.88
2017-01-16T12:51:38.966Z,54.69
2017-01-16T12:52:47.662Z,54.79
2017-01-16T12:53:56.365Z,54.88
2017-01-16T12:55:05.062Z,55.36
2017-01-16T12:56:13.767Z,54.69
2017-01-16T12:57:22.461Z,53.94
2017-01-16T12:58:31.164Z,54.13
2017-01-16T12:59:39.858Z,53.37
2017-01-16T13:00:48.553Z,53.27
2017-01-16T13:01:57.246Z,53.08
2017-01-16T13:03:05.951Z,53.27
2017-01-16T13:04:14.652Z,53.18
2017-01-16T13:05:23.754Z,52.42
2017-01-16T13:06:32.452Z,52.33
2017-01-16T13:07:41.149Z,53.18
2017-01-16T13:08:49.845Z,53.27
2017-01-16T13:09:58.893Z,52.98
2017-01-16T13:11:07.596Z,52.14
2017-01-16T13:12:16.294Z,53.15
2017-01-16T13:13:24.996Z,53.94
2017-01-16T13:14:33.697Z,54.69
2017-01-16T13:15:42.396Z,54.03
2017-01-16T13:16:51.093Z,52.89
2017-01-16T13:17:59.797Z,52.64
2017-01-16T13:19:08.496Z,52.26
2017-01-16T13:20:17.193Z,52.26
2017-01-16T13:21:25.888Z,51.68
2017-01-16T13:22:34.586Z,52
2017-01-16T13:23:43.283Z,52.09
2017-01-16T13:24:51.986Z,51.33
2017-01-16T13:26:00.687Z,51.43
2017-01-16T13:27:09.398Z,50.29
2017-01-16T13:28:18.096Z,49.91
2017-01-16T13:29:26.794Z,50.2
2017-01-16T13:30:35.495Z,49.6
2017-01-16T13:31:44.588Z,49.69
2017-01-16T13:32:53.288Z,49.86
2017-01-16T13:34:01.991Z,50.12
2017-01-16T13:35:10.695Z,50.57
2017-01-16T13:36:19.388Z,51.99
2017-01-16T13:37:28.081Z,53.03
2017-01-16T13:38:36.775Z,52.72
2017-01-16T13:39:45.474Z,53.85
2017-01-16T13:40:54.168Z,55.06
2017-01-16T13:42:02.865Z,56.01
2017-01-16T13:43:11.591Z,56.76
2017-01-16T13:44:20.279Z,56.92
2017-01-16T13:45:29.008Z,58.34
2017-01-16T13:46:37.703Z,58.31
2017-01-16T13:47:46.398Z,59.16
2017-01-16T13:48:55.085Z,60.39
2017-01-16T13:50:03.776Z,60.83
2017-01-16T13:51:12.474Z,62.34
2017-01-16T13:52:21.161Z,63
2017-01-16T13:53:29.856Z,63.29
2017-01-16T13:54:38.541Z,63.67
2017-01-16T13:55:47.252Z,63.76
2017-01-16T13:56:55.942Z,64.7
2017-01-16T13:58:04.630Z,64.2
2017-01-16T13:59:13.316Z,64.39
2017-01-16T14:00:22.003Z,64.86
2017-01-16T14:01:30.689Z,65.23
2017-01-16T14:02:39.374Z,65.14
2017-01-16T14:03:48.064Z,65.52
2017-01-16T14:04:56.755Z,65.52
2017-01-16T14:06:05.451Z,65.9
2017-01-16T14:07:14.178Z,65.99
2017-01-16T14:08:22.869Z,65.9
2017-01-16T14:09:31.555Z,65.9
2017-01-16T14:10:40.242Z,66.56
2017-01-16T14:11:48.924Z,67.22
2017-01-16T14:12:57.631Z,66.84
2017-01-16T14:14:06.313Z,67.38
2017-01-16T14:15:15.005Z,67.75
2017-01-16T14:16:23.695Z,68.41
2017-01-16T14:17:32.384Z,69.07
2017-01-16T14:18:41.072Z,68.88
2017-01-16T14:19:49.757Z,70.2
2017-01-16T14:20:58.443Z,70.3
2017-01-16T14:22:07.129Z,71.25
2017-01-16T14:23:15.812Z,70.87
2017-01-16T14:24:24.500Z,70.96
2017-01-16T14:25:33.187Z,72
2017-01-16T14:26:41.876Z,71.15
2017-01-16T14:27:50.566Z,71.53
2017-01-16T14:28:59.251Z,72
2017-01-16T14:30:07.939Z,71.96
2017-01-16T14:31:16.627Z,71.96
2017-01-16T14:32:25.308Z,71.49
2017-01-16T14:33:34.000Z,72.06
2017-01-16T14:34:42.683Z,72.06
2017-01-16T14:35:51.365Z,71.77
2017-01-16T14:37:00.049Z,71.87
2017-01-16T14:38:08.733Z,71.96
2017-01-16T14:39:17.422Z,72.15
2017-01-16T14:40:26.105Z,71.87
2017-01-16T14:41:34.787Z,72.15
2017-01-16T14:42:43.476Z,73
2017-01-16T14:43:52.160Z,73
2017-01-16T14:45:00.849Z,73.47
2017-01-16T14:46:09.544Z,73.1
2017-01-16T14:47:18.237Z,73.57
2017-01-16T14:48:26.916Z,73.57